createdAt,value
2017-08-15T00:00:53.057Z,54.8
2017-08-15T00:01:55.188Z,55
2017-08-15T00:02:57.317Z,54.8
2017-08-15T00:03:59.447Z,54.9
2017-08-15T00:05:01.576Z,54.9
2017-08-15T00:06:03.379Z,54.7
2017-08-15T00:07:04.818Z,55.2
2017-08-15T00:08:06.613Z,55.1
2017-08-15T00:09:08.745Z,54.9
2017-08-15T00:10:10.212Z,55.2
2017-08-15T00:11:12.014Z,54.9
2017-08-15T00:12:13.849Z,54.9
2017-08-15T00:13:15.631Z,55
2017-08-15T00:14:17.077Z,54.9
2017-08-15T00:15:19.203Z,54.9
2017-08-15T00:16:20.998Z,54.8
2017-08-15T00:17:23.128Z,55.3
2017-08-15T00:18:25.256Z,55.4
2017-08-15T00:19:27.028Z,54.8
2017-08-15T00:20:28.826Z,54.9
2017-08-15T00:21:30.619Z,54.8
2017-08-15T00:22:32.751Z,54.9
2017-08-15T00:23:34.882Z,55
2017-08-15T00:24:37.008Z,55.2
2017-08-15T00:25:39.136Z,55
2017-08-15T00:26:41.268Z,55.4
2017-08-15T00:27:43.065Z,55
2017-08-15T00:28:45.191Z,54.7
2017-08-15T00:29:46.659Z,54.9
2017-08-15T00:30:48.456Z,54.7
2017-08-15T00:31:50.255Z,54.8
2017-08-15T00:32:52.387Z,55
2017-08-15T00:33:54.519Z,54.9
2017-08-15T00:34:56.295Z,55.1
2017-08-15T00:35:58.097Z,55.2
2017-08-15T00:37:00.226Z,55.1
2017-08-15T00:38:02.022Z,55.2
2017-08-15T00:39:03.999Z,55
2017-08-15T00:40:06.128Z,54.8
2017-08-15T00:41:08.257Z,55
2017-08-15T00:42:10.036Z,55.1
2017-08-15T00:43:11.814Z,55.2
2017-08-15T00:44:13.949Z,55
2017-08-15T00:45:15.748Z,55.1
2017-08-15T00:46:17.544Z,55.1
2017-08-15T00:47:19.678Z,54.8
2017-08-15T00:48:21.137Z,55.3
2017-08-15T00:49:22.782Z,55.1
2017-08-15T00:50:24.578Z,55
2017-08-15T00:51:25.714Z,55
2017-08-15T00:52:27.512Z,55.2
2017-08-15T00:53:29.641Z,55.4
2017-08-15T00:54:30.794Z,55
2017-08-15T00:55:32.958Z,54.9
2017-08-15T00:56:35.089Z,54.9
2017-08-15T00:57:37.216Z,55.2
2017-08-15T00:58:39.015Z,54.8
2017-08-15T00:59:41.144Z,55
2017-08-15T01:00:42.939Z,54.9
2017-08-15T01:01:44.738Z,55.2
2017-08-15T01:02:46.516Z,55.5
2017-08-15T01:03:48.293Z,55
2017-08-15T01:04:50.426Z,55
2017-08-15T01:05:52.221Z,55.2
2017-08-15T01:06:54.358Z,55.2
2017-08-15T01:07:56.195Z,55.3
2017-08-15T01:08:58.056Z,55.3
2017-08-15T01:09:59.834Z,54.9
2017-08-15T01:11:01.633Z,55.4
2017-08-15T01:12:03.103Z,55.4
2017-08-15T01:13:04.905Z,55.7
2017-08-15T01:14:06.372Z,55.3
2017-08-15T01:15:08.498Z,55.7
2017-08-15T01:16:10.626Z,54.9
2017-08-15T01:17:12.753Z,55.4
2017-08-15T01:18:14.552Z,55.6
2017-08-15T01:19:16.349Z,55.1
2017-08-15T01:20:18.148Z,55.4
2017-08-15T01:21:19.953Z,55.4
2017-08-15T01:22:21.419Z,55.3
2017-08-15T01:23:23.559Z,55.3
2017-08-15T01:24:25.679Z,55.5
2017-08-15T01:25:27.810Z,55.1
2017-08-15T01:26:29.938Z,55.2
2017-08-15T01:27:31.380Z,55.3
2017-08-15T01:28:32.828Z,55.6
2017-08-15T01:29:34.617Z,55.1
2017-08-15T01:30:36.748Z,55.1
2017-08-15T01:31:38.877Z,55.3
2017-08-15T01:32:41.007Z,55.5
2017-08-15T01:33:42.781Z,55.4
2017-08-15T01:34:44.909Z,55.4
2017-08-15T01:35:47.238Z,55.3
2017-08-15T01:36:48.698Z,55.5
2017-08-15T01:37:50.827Z,55.1
2017-08-15T01:38:52.979Z,55.1
2017-08-15T01:39:55.099Z,55.6
2017-08-15T01:40:57.229Z,55.5
2017-08-15T01:41:58.697Z,55.6
2017-08-15T01:43:00.822Z,55.5
2017-08-15T01:44:02.953Z,55.5
2017-08-15T01:45:05.082Z,55.1
2017-08-15T01:46:07.212Z,55.3
2017-08-15T01:47:09.014Z,55.4
2017-08-15T01:48:10.809Z,55.4
2017-08-15T01:49:12.938Z,55.6
2017-08-15T01:50:14.402Z,55.5
2017-08-15T01:51:16.782Z,55.3
2017-08-15T01:52:18.913Z,55.4
2017-08-15T01:53:20.710Z,55.5
2017-08-15T01:54:22.838Z,55.2
2017-08-15T01:55:24.632Z,55.2
2017-08-15T01:56:26.780Z,55.3
2017-08-15T01:57:28.573Z,55.6
2017-08-15T01:58:30.029Z,55.1
2017-08-15T01:59:31.814Z,55.1
2017-08-15T02:00:33.611Z,55.3
2017-08-15T02:01:35.411Z,55.5
2017-08-15T02:02:37.542Z,55.7
2017-08-15T02:03:39.330Z,55.4
2017-08-15T02:04:41.103Z,55.2
2017-08-15T02:05:42.875Z,55.5
2017-08-15T02:06:45.005Z,55.6
2017-08-15T02:07:46.470Z,55.1
2017-08-15T02:08:48.282Z,55.2
2017-08-15T02:09:50.424Z,55.3
2017-08-15T02:10:52.221Z,55.5
2017-08-15T02:11:53.664Z,55.6
2017-08-15T02:12:55.792Z,55.4
2017-08-15T02:13:57.568Z,55.6
2017-08-15T02:14:58.678Z,55.1
2017-08-15T02:16:00.805Z,55.3
2017-08-15T02:17:02.578Z,55.1
2017-08-15T02:18:04.378Z,55.7
2017-08-15T02:19:05.818Z,55.1
2017-08-15T02:20:07.275Z,55.5
2017-08-15T02:21:09.047Z,55.7
2017-08-15T02:22:10.509Z,55.1
2017-08-15T02:23:12.308Z,55.4
2017-08-15T02:24:14.437Z,55.6
2017-08-15T02:25:15.878Z,55.3
2017-08-15T02:26:17.672Z,55.5
2017-08-15T02:27:19.799Z,55
2017-08-15T02:28:21.259Z,55.3
2017-08-15T02:29:23.387Z,55.3
2017-08-15T02:30:24.493Z,55.3
2017-08-15T02:31:26.625Z,55.6
2017-08-15T02:32:28.070Z,55.6
2017-08-15T02:33:30.216Z,55.6
2017-08-15T02:34:31.642Z,55.6
2017-08-15T02:35:33.437Z,55
2017-08-15T02:36:35.213Z,55.4
2017-08-15T02:37:36.988Z,55.2
2017-08-15T02:38:39.116Z,55.6
2017-08-15T02:39:40.896Z,55.3
2017-08-15T02:40:43.027Z,55.4
2017-08-15T02:41:44.821Z,55.4
2017-08-15T02:42:46.950Z,55.2
2017-08-15T02:43:49.079Z,55.8
2017-08-15T02:44:50.875Z,55.5
2017-08-15T02:45:52.671Z,55.4
2017-08-15T02:46:54.110Z,55.5
2017-08-15T02:47:55.886Z,55.6
2017-08-15T02:48:58.028Z,55.5
2017-08-15T02:50:00.143Z,55.4
2017-08-15T02:51:02.272Z,55.3
2017-08-15T02:52:03.741Z,55.4
2017-08-15T02:53:06.070Z,55.1
2017-08-15T02:54:08.197Z,55.2
2017-08-15T02:55:10.333Z,55.3
2017-08-15T02:56:12.125Z,55.5
2017-08-15T02:57:13.923Z,55.4
2017-08-15T02:58:16.052Z,55.5
2017-08-15T02:59:17.847Z,55.4
2017-08-15T03:00:19.318Z,55.6
2017-08-15T03:01:21.450Z,55.2
2017-08-15T03:02:23.577Z,55.5
2017-08-15T03:03:25.350Z,55.3
2017-08-15T03:04:26.819Z,55.4
2017-08-15T03:05:28.612Z,55.5
2017-08-15T03:06:30.754Z,55.5
2017-08-15T03:07:32.887Z,55.2
2017-08-15T03:08:34.884Z,55.6
2017-08-15T03:09:36.679Z,55.7
2017-08-15T03:10:37.786Z,55.4
2017-08-15T03:11:39.915Z,55.5
2017-08-15T03:12:42.043Z,55.2
2017-08-15T03:13:43.510Z,55.4
2017-08-15T03:14:45.639Z,55.3
2017-08-15T03:15:47.434Z,55.4
2017-08-15T03:16:49.564Z,55.5
2017-08-15T03:17:51.358Z,55.3
2017-08-15T03:18:52.829Z,55.8
2017-08-15T03:19:54.295Z,55.4
2017-08-15T03:20:56.093Z,55.3
2017-08-15T03:21:57.535Z,55.5
2017-08-15T03:22:59.665Z,55.5
2017-08-15T03:24:01.458Z,55.5
2017-08-15T03:25:03.235Z,55.3
2017-08-15T03:26:05.009Z,55.5
2017-08-15T03:27:06.125Z,55.4
2017-08-15T03:28:07.938Z,55
2017-08-15T03:29:09.608Z,55.4
2017-08-15T03:30:11.407Z,55.4
2017-08-15T03:31:12.526Z,55.1
2017-08-15T03:32:14.303Z,55.7
2017-08-15T03:33:16.102Z,55.5
2017-08-15T03:34:17.874Z,55.4
2017-08-15T03:35:20.005Z,55.4
2017-08-15T03:36:21.779Z,55.6
2017-08-15T03:37:22.886Z,55.5
2017-08-15T03:38:24.347Z,55.2
2017-08-15T03:39:25.455Z,55.3
2017-08-15T03:40:27.609Z,55.5
2017-08-15T03:41:29.752Z,55.4
2017-08-15T03:42:31.223Z,55.4
2017-08-15T03:43:33.014Z,55.7
2017-08-15T03:44:34.680Z,55.3
2017-08-15T03:45:36.179Z,55.5
2017-08-15T03:46:37.286Z,55.6
2017-08-15T03:47:38.730Z,55.3
2017-08-15T03:48:40.500Z,55.4
2017-08-15T03:49:42.630Z,55.7
2017-08-15T03:50:44.433Z,55.4
2017-08-15T03:51:46.232Z,55.4
2017-08-15T03:52:48.360Z,55.3
2017-08-15T03:53:50.491Z,55.4
2017-08-15T03:54:52.620Z,55.5
2017-08-15T03:55:54.429Z,55.3
2017-08-15T03:56:56.201Z,55.3
2017-08-15T03:57:58.329Z,55.4
2017-08-15T03:59:00.458Z,55.3
2017-08-15T04:00:02.584Z,55.4
2017-08-15T04:01:04.713Z,55.5
2017-08-15T04:02:06.160Z,55.3
2017-08-15T04:03:07.955Z,55.5
2017-08-15T04:04:09.399Z,55.3
2017-08-15T04:05:11.569Z,55.6
2017-08-15T04:06:12.680Z,55.4
2017-08-15T04:07:14.143Z,55.6
2017-08-15T04:08:15.586Z,55.6
2017-08-15T04:09:17.027Z,55.3
2017-08-15T04:10:19.005Z,55.5
2017-08-15T04:11:20.115Z,55.3
2017-08-15T04:12:21.912Z,55.4
2017-08-15T04:13:24.038Z,55.5
2017-08-15T04:14:25.835Z,55.2
2017-08-15T04:15:27.297Z,55.8
2017-08-15T04:16:29.075Z,55.3
2017-08-15T04:17:30.183Z,55.3
2017-08-15T04:18:31.288Z,55.5
2017-08-15T04:19:33.421Z,55.6
2017-08-15T04:20:35.222Z,55.4
2017-08-15T04:21:37.350Z,55.8
2017-08-15T04:22:39.481Z,55.6
2017-08-15T04:23:41.255Z,55.4
2017-08-15T04:24:43.382Z,55.4
2017-08-15T04:25:45.712Z,55.4
2017-08-15T04:26:47.509Z,55.5
2017-08-15T04:27:48.951Z,55.4
2017-08-15T04:28:51.083Z,55.7
2017-08-15T04:29:53.222Z,55.4
2017-08-15T04:30:54.330Z,55.4
2017-08-15T04:31:56.463Z,55.4
2017-08-15T04:32:58.591Z,55.4
2017-08-15T04:34:00.389Z,55.4
2017-08-15T04:35:02.186Z,55.3
2017-08-15T04:36:03.627Z,55.5
2017-08-15T04:37:05.762Z,55.3
2017-08-15T04:38:07.534Z,55.4
2017-08-15T04:39:09.331Z,55.3
2017-08-15T04:40:11.123Z,55.5
2017-08-15T04:41:13.252Z,55.3
2017-08-15T04:42:15.058Z,55.4
2017-08-15T04:43:16.858Z,55.6
2017-08-15T04:44:18.999Z,55.4
2017-08-15T04:45:21.134Z,55.6
2017-08-15T04:46:23.181Z,55.4
2017-08-15T04:47:25.312Z,55.5
2017-08-15T04:48:26.428Z,55.6
2017-08-15T04:49:28.556Z,55.6
2017-08-15T04:50:30.022Z,55.7
2017-08-15T04:51:31.819Z,55.3
2017-08-15T04:52:33.615Z,55.3
2017-08-15T04:53:35.416Z,55.3
2017-08-15T04:54:36.865Z,55.8
2017-08-15T04:55:38.308Z,55.4
2017-08-15T04:56:40.434Z,55.3
2017-08-15T04:57:42.217Z,55.8
2017-08-15T04:58:43.339Z,55.8
2017-08-15T04:59:44.804Z,55.7
2017-08-15T05:00:46.584Z,55.6
2017-08-15T05:01:48.711Z,55.5
2017-08-15T05:02:50.510Z,55.4
2017-08-15T05:03:51.976Z,55.8
2017-08-15T05:04:53.746Z,55.4
2017-08-15T05:05:55.204Z,55.4
2017-08-15T05:06:56.998Z,55.5
2017-08-15T05:07:59.126Z,55.3
2017-08-15T05:09:00.592Z,55.3
2017-08-15T05:10:02.719Z,55.4
2017-08-15T05:11:03.829Z,55.3
2017-08-15T05:12:05.628Z,55.3
2017-08-15T05:13:07.424Z,55.3
2017-08-15T05:14:09.220Z,55.4
2017-08-15T05:15:10.683Z,55.6
2017-08-15T05:16:12.819Z,55.2
2017-08-15T05:17:14.945Z,55.8
2017-08-15T05:18:16.748Z,55.4
2017-08-15T05:19:18.877Z,55.8
2017-08-15T05:20:21.006Z,55.3
2017-08-15T05:21:22.831Z,55.5
2017-08-15T05:22:24.497Z,55.2
2017-08-15T05:23:25.963Z,55.2
2017-08-15T05:24:27.431Z,55.3
2017-08-15T05:25:29.229Z,55.2
2017-08-15T05:26:31.025Z,55.1
2017-08-15T05:27:33.157Z,55.5
2017-08-15T05:28:34.601Z,55.6
2017-08-15T05:29:36.066Z,55.1
2017-08-15T05:30:38.195Z,55.1
2017-08-15T05:31:39.658Z,55.1
2017-08-15T05:32:40.970Z,55.2
2017-08-15T05:33:43.096Z,55.2
2017-08-15T05:34:44.898Z,54.9
2017-08-15T05:35:47.032Z,55
2017-08-15T05:36:49.161Z,55
2017-08-15T05:37:50.957Z,55.4
2017-08-15T05:38:52.420Z,55.2
2017-08-15T05:39:53.196Z,55.4
2017-08-15T05:40:55.327Z,54.9
2017-08-15T05:41:56.437Z,54.9
2017-08-15T05:42:58.239Z,55.1
2017-08-15T05:44:00.379Z,54.7
2017-08-15T05:45:01.822Z,55
2017-08-15T05:46:03.625Z,54.8
2017-08-15T05:47:05.424Z,54.7
2017-08-15T05:48:07.561Z,54.5
2017-08-15T05:49:09.361Z,54.8
2017-08-15T05:50:11.141Z,54.7
2017-08-15T05:51:12.609Z,54.8
2017-08-15T05:52:14.736Z,55
2017-08-15T05:53:16.054Z,55
2017-08-15T05:54:17.853Z,55.3
2017-08-15T05:55:19.655Z,54.8
2017-08-15T05:56:21.440Z,54.8
2017-08-15T05:57:23.239Z,54.6
2017-08-15T05:58:25.016Z,54.6
2017-08-15T05:59:27.145Z,54.6
2017-08-15T06:00:28.945Z,54.5
2017-08-15T06:01:31.076Z,54.5
2017-08-15T06:02:32.522Z,54.4
2017-08-15T06:03:34.849Z,54.5
2017-08-15T06:04:36.986Z,54.1
2017-08-15T06:05:39.129Z,54.3
2017-08-15T06:06:40.927Z,54.7
2017-08-15T06:07:43.059Z,54.5
2017-08-15T06:08:44.839Z,54.3
2017-08-15T06:09:46.283Z,54.3
2017-08-15T06:10:48.411Z,54.2
2017-08-15T06:11:49.197Z,54.4
2017-08-15T06:12:50.997Z,54.9
2017-08-15T06:13:52.610Z,54.5
2017-08-15T06:14:54.387Z,54.3
2017-08-15T06:15:56.180Z,54.4
2017-08-15T06:16:57.954Z,54.2
2017-08-15T06:18:00.088Z,54.4
2017-08-15T06:19:02.220Z,54.1
2017-08-15T06:20:04.024Z,54.4
2017-08-15T06:21:06.159Z,54.1
2017-08-15T06:22:08.290Z,54.3
2017-08-15T06:23:10.296Z,54.1
2017-08-15T06:24:12.096Z,54.3
2017-08-15T06:25:13.897Z,54.8
2017-08-15T06:26:15.361Z,54.1
2017-08-15T06:27:17.496Z,54
2017-08-15T06:28:19.628Z,54.1
2017-08-15T06:29:21.505Z,54.4
2017-08-15T06:30:22.282Z,54.3
2017-08-15T06:31:24.414Z,54.1
2017-08-15T06:32:26.215Z,54.2
2017-08-15T06:33:28.013Z,54.6
2017-08-15T06:34:29.798Z,54.2
2017-08-15T06:35:31.238Z,54.3
2017-08-15T06:36:33.373Z,54.2
2017-08-15T06:37:34.834Z,54.3
2017-08-15T06:38:36.969Z,54.1
2017-08-15T06:39:38.767Z,53.9
2017-08-15T06:40:40.901Z,54.2
2017-08-15T06:41:42.696Z,54.1
2017-08-15T06:42:44.146Z,54.4
2017-08-15T06:43:45.950Z,54.6
2017-08-15T06:44:48.078Z,54.3
2017-08-15T06:45:49.522Z,54.1
2017-08-15T06:46:51.653Z,54
2017-08-15T06:47:53.159Z,54.2
2017-08-15T06:48:55.021Z,54.5
2017-08-15T06:49:56.550Z,53.9
2017-08-15T06:50:58.346Z,54.5
2017-08-15T06:52:00.125Z,54.3
2017-08-15T06:53:01.923Z,53.9
2017-08-15T06:54:03.704Z,53.7
2017-08-15T06:55:05.519Z,54.3
2017-08-15T06:56:07.656Z,54.6
2017-08-15T06:57:09.787Z,54.2
2017-08-15T06:58:11.565Z,54
2017-08-15T06:59:13.343Z,54
2017-08-15T07:00:14.815Z,54.2
2017-08-15T07:01:16.587Z,54.2
2017-08-15T07:02:18.720Z,54.1
2017-08-15T07:03:20.854Z,54.6
2017-08-15T07:04:22.984Z,54.5
2017-08-15T07:05:24.760Z,54.6
2017-08-15T07:06:26.559Z,54.1
2017-08-15T07:07:28.691Z,54
2017-08-15T07:08:30.507Z,54.4
2017-08-15T07:09:32.304Z,54.2
2017-08-15T07:10:34.435Z,54.3
2017-08-15T07:11:36.232Z,54.4
2017-08-15T07:12:37.697Z,54
2017-08-15T07:13:39.838Z,54
2017-08-15T07:14:41.964Z,54.4
2017-08-15T07:15:43.813Z,54.2
2017-08-15T07:16:45.624Z,54.1
2017-08-15T07:17:47.400Z,54
2017-08-15T07:18:48.866Z,54.6
2017-08-15T07:19:50.993Z,54.5
2017-08-15T07:20:52.109Z,53.9
2017-08-15T07:21:53.586Z,54
2017-08-15T07:22:55.381Z,54.2
2017-08-15T07:23:56.516Z,53.9
2017-08-15T07:24:58.315Z,54
2017-08-15T07:26:00.125Z,54
2017-08-15T07:27:02.258Z,53.6
2017-08-15T07:28:04.385Z,53.7
2017-08-15T07:29:06.513Z,53.5
2017-08-15T07:30:07.964Z,54.3
2017-08-15T07:31:09.743Z,53.7
2017-08-15T07:32:11.546Z,54
2017-08-15T07:33:12.992Z,53.8
2017-08-15T07:34:15.128Z,53.7
2017-08-15T07:35:16.241Z,53.6
2017-08-15T07:36:18.371Z,53.7
2017-08-15T07:37:20.508Z,54.2
2017-08-15T07:38:22.312Z,53.6
2017-08-15T07:39:24.114Z,54.1
2017-08-15T07:40:26.244Z,54.2
2017-08-15T07:41:27.710Z,53.8
2017-08-15T07:42:29.504Z,54.2
2017-08-15T07:43:30.973Z,54.1
2017-08-15T07:44:32.749Z,53.6
2017-08-15T07:45:34.219Z,53.8
2017-08-15T07:46:36.018Z,54.3
2017-08-15T07:47:37.829Z,54.2
2017-08-15T07:48:40.006Z,54.3
2017-08-15T07:49:41.786Z,54.2
2017-08-15T07:50:43.261Z,54
2017-08-15T07:51:45.391Z,54.1
2017-08-15T07:52:46.835Z,54.5
2017-08-15T07:53:48.614Z,53.7
2017-08-15T07:54:50.414Z,54.6
2017-08-15T07:55:52.549Z,53.9
2017-08-15T07:56:54.013Z,53.5
2017-08-15T07:57:55.816Z,53.6
2017-08-15T07:58:57.615Z,54.3
2017-08-15T07:59:59.745Z,54.6
2017-08-15T08:01:01.877Z,55.3
2017-08-15T08:02:03.330Z,55.5
2017-08-15T08:03:05.133Z,55.7
2017-08-15T08:04:06.270Z,55.2
2017-08-15T08:05:07.718Z,54.8
2017-08-15T08:06:09.521Z,54.8
2017-08-15T08:07:11.651Z,54.5
2017-08-15T08:08:13.787Z,54.3
2017-08-15T08:09:15.585Z,54.5
2017-08-15T08:10:17.361Z,54.5
2017-08-15T08:11:19.159Z,54.3
2017-08-15T08:12:21.300Z,54.7
2017-08-15T08:13:23.126Z,54.8
2017-08-15T08:14:25.258Z,54.8
2017-08-15T08:15:27.034Z,54.5
2017-08-15T08:16:28.845Z,54.1
2017-08-15T08:17:30.975Z,54.3
2017-08-15T08:18:32.426Z,54.3
2017-08-15T08:19:34.558Z,54.9
2017-08-15T08:20:36.358Z,54.2
2017-08-15T08:21:38.161Z,54.5
2017-08-15T08:22:39.945Z,54.4
2017-08-15T08:23:42.075Z,54.3
2017-08-15T08:24:44.209Z,54.9
2017-08-15T08:25:46.011Z,54.6
2017-08-15T08:26:48.143Z,54.7
2017-08-15T08:27:49.918Z,54.4
2017-08-15T08:28:52.046Z,54.7
2017-08-15T08:29:53.947Z,54.4
2017-08-15T08:30:55.400Z,54.4
2017-08-15T08:31:56.841Z,54.7
2017-08-15T08:32:58.978Z,54.2
2017-08-15T08:34:00.882Z,54.1
2017-08-15T08:35:03.627Z,54.4
2017-08-15T08:36:09.415Z,54.4
2017-08-15T08:37:10.988Z,54.2
2017-08-15T08:38:13.370Z,54.8
2017-08-15T08:39:15.183Z,54.1
2017-08-15T08:40:17.105Z,54.5
2017-08-15T08:41:18.969Z,54.3
2017-08-15T08:42:20.140Z,54.1
2017-08-15T08:43:22.137Z,54.7
2017-08-15T08:44:23.577Z,54.4
2017-08-15T08:45:24.741Z,54.5
2017-08-15T08:46:27.005Z,54.3
2017-08-15T08:47:28.839Z,54.3
2017-08-15T08:48:30.785Z,54.2
2017-08-15T08:49:32.584Z,54.5
2017-08-15T08:50:34.719Z,55.1
2017-08-15T08:51:36.504Z,54.2
2017-08-15T08:52:39.093Z,54.3
2017-08-15T08:53:40.877Z,54.2
2017-08-15T08:54:42.348Z,54.2
2017-08-15T08:55:44.476Z,54.5
2017-08-15T08:56:46.610Z,54.5
2017-08-15T08:57:48.742Z,54.3
2017-08-15T08:58:50.588Z,54.3
2017-08-15T08:59:52.390Z,54.7
2017-08-15T09:00:53.562Z,54.7
2017-08-15T09:01:55.340Z,54.4
2017-08-15T09:02:56.454Z,54.2
2017-08-15T09:03:58.636Z,54.5
2017-08-15T09:05:00.434Z,54.3
2017-08-15T09:06:02.567Z,54.5
2017-08-15T09:07:04.369Z,54.9
2017-08-15T09:08:05.834Z,54.5
2017-08-15T09:09:07.735Z,55
2017-08-15T09:10:08.882Z,54.3
2017-08-15T09:11:11.014Z,54.5
2017-08-15T09:12:13.144Z,54.2
2017-08-15T09:13:14.948Z,54.2
2017-08-15T09:14:17.153Z,54.7
2017-08-15T09:15:19.285Z,54.4
2017-08-15T09:16:21.418Z,54.3
2017-08-15T09:17:23.549Z,54.4
2017-08-15T09:18:25.679Z,54.8
2017-08-15T09:19:27.817Z,54.3
2017-08-15T09:20:29.959Z,54.1
2017-08-15T09:21:31.410Z,54.2
2017-08-15T09:22:32.881Z,54.3
2017-08-15T09:23:34.676Z,54.2
2017-08-15T09:24:36.126Z,54.4
2017-08-15T09:25:37.928Z,54.4
2017-08-15T09:26:39.741Z,54.5
2017-08-15T09:27:41.874Z,54.5
2017-08-15T09:28:43.676Z,54.2
2017-08-15T09:29:45.481Z,54.3
2017-08-15T09:30:47.620Z,54.4
2017-08-15T09:31:49.756Z,54.9
2017-08-15T09:32:51.893Z,54.2
2017-08-15T09:33:54.029Z,54.2
2017-08-15T09:34:55.544Z,54.6
2017-08-15T09:35:57.330Z,54.3
2017-08-15T09:36:59.131Z,54.2
2017-08-15T09:38:00.932Z,54.3
2017-08-15T09:39:03.061Z,54.5
2017-08-15T09:40:04.507Z,54.4
2017-08-15T09:41:05.979Z,54.6
2017-08-15T09:42:07.097Z,54.6
2017-08-15T09:43:08.893Z,54.1
2017-08-15T09:44:11.022Z,54.1
2017-08-15T09:45:12.495Z,54.1
2017-08-15T09:46:13.944Z,54.4
2017-08-15T09:47:15.422Z,54.4
2017-08-15T09:48:17.222Z,54.4
2017-08-15T09:49:19.353Z,54.3
2017-08-15T09:50:21.154Z,54.3
2017-08-15T09:51:22.953Z,54.5
2017-08-15T09:52:24.755Z,54.2
2017-08-15T09:53:26.888Z,54.3
2017-08-15T09:54:29.052Z,54.6
2017-08-15T09:55:30.929Z,54.3
2017-08-15T09:56:33.057Z,54.3
2017-08-15T09:57:35.188Z,54.3
2017-08-15T09:58:37.318Z,54.4
2017-08-15T09:59:39.453Z,54.1
2017-08-15T10:00:40.924Z,54
2017-08-15T10:01:42.722Z,54.2
2017-08-15T10:02:44.855Z,54.1
2017-08-15T10:03:46.311Z,54.3
2017-08-15T10:04:47.785Z,54.1
2017-08-15T10:05:49.919Z,54.1
2017-08-15T10:06:52.056Z,54.3
2017-08-15T10:07:53.855Z,54.7
2017-08-15T10:08:55.652Z,54.5
2017-08-15T10:09:57.787Z,54.4
2017-08-15T10:10:59.588Z,54.5
2017-08-15T10:12:01.084Z,54.5
2017-08-15T10:13:02.869Z,54.6
2017-08-15T10:14:04.669Z,54.6
2017-08-15T10:15:06.467Z,54.7
2017-08-15T10:16:08.602Z,54.2
2017-08-15T10:17:10.402Z,54.3
2017-08-15T10:18:12.534Z,54.1
2017-08-15T10:19:14.666Z,54.1
2017-08-15T10:20:16.798Z,54.2
2017-08-15T10:21:18.934Z,54.1
2017-08-15T10:22:20.724Z,53.5
2017-08-15T10:23:22.523Z,53.5
2017-08-15T10:24:24.331Z,53.7
2017-08-15T10:25:26.128Z,54.4
2017-08-15T10:26:27.936Z,54
2017-08-15T10:27:29.060Z,54.3
2017-08-15T10:28:31.198Z,54.6
2017-08-15T10:29:32.998Z,54.1
2017-08-15T10:30:34.750Z,54.3
2017-08-15T10:31:36.877Z,54.5
2017-08-15T10:32:39.478Z,54.2
2017-08-15T10:33:41.351Z,54.8
2017-08-15T10:34:43.484Z,54.6
2017-08-15T10:35:45.266Z,54.5
2017-08-15T10:36:47.070Z,54.4
2017-08-15T10:37:49.245Z,54.3
2017-08-15T10:38:51.379Z,54.1
2017-08-15T10:39:53.531Z,54
2017-08-15T10:40:55.667Z,54.1
2017-08-15T10:41:57.468Z,54
2017-08-15T10:42:59.240Z,54.1
2017-08-15T10:44:01.040Z,53.9
2017-08-15T10:45:02.821Z,54
2017-08-15T10:46:04.676Z,54.3
2017-08-15T10:47:06.460Z,54.4
2017-08-15T10:48:07.958Z,54.1
2017-08-15T10:49:10.117Z,54.2
2017-08-15T10:50:11.225Z,54.2
2017-08-15T10:51:13.025Z,54.3
2017-08-15T10:52:14.143Z,54.4
2017-08-15T10:53:15.945Z,54.4
2017-08-15T10:54:17.741Z,54.4
2017-08-15T10:55:19.543Z,54.5
2017-08-15T10:56:20.992Z,54.1
2017-08-15T10:57:23.124Z,54.4
2017-08-15T10:58:24.923Z,54.5
2017-08-15T10:59:27.087Z,54.4
2017-08-15T11:00:28.963Z,54.2
2017-08-15T11:01:30.761Z,54.1
2017-08-15T11:02:32.233Z,54
2017-08-15T11:03:34.010Z,54
2017-08-15T11:04:35.843Z,54.5
2017-08-15T11:05:37.648Z,54.4
2017-08-15T11:06:39.451Z,54.4
2017-08-15T11:07:40.997Z,54.2
2017-08-15T11:08:43.132Z,54.2
2017-08-15T11:09:44.252Z,54.2
2017-08-15T11:10:46.048Z,54.1
2017-08-15T11:11:47.168Z,54.1
2017-08-15T11:12:48.618Z,54.1
2017-08-15T11:13:50.749Z,54
2017-08-15T11:14:52.197Z,54.3
2017-08-15T11:15:53.999Z,54.3
2017-08-15T11:16:55.798Z,54.3
2017-08-15T11:17:57.602Z,54.2
2017-08-15T11:18:58.717Z,54.2
2017-08-15T11:20:00.847Z,54
2017-08-15T11:21:02.635Z,54.2
2017-08-15T11:22:04.422Z,53.9
2017-08-15T11:23:06.224Z,53.9
2017-08-15T11:24:08.024Z,53.9
2017-08-15T11:25:09.496Z,53.9
2017-08-15T11:26:11.621Z,54.2
2017-08-15T11:27:12.727Z,54.4
2017-08-15T11:28:14.245Z,54.5
2017-08-15T11:29:16.049Z,54.4
2017-08-15T11:30:17.846Z,54.3
2017-08-15T11:31:18.960Z,54.6
2017-08-15T11:32:20.432Z,54.4
2017-08-15T11:33:22.564Z,54.4
2017-08-15T11:34:24.363Z,54.8
2017-08-15T11:35:25.469Z,54.3
2017-08-15T11:36:27.613Z,54
2017-08-15T11:37:29.418Z,54.1
2017-08-15T11:38:31.222Z,54.1
2017-08-15T11:39:32.995Z,54.1
2017-08-15T11:40:35.128Z,54.2
2017-08-15T11:41:36.925Z,54.3
2017-08-15T11:42:38.725Z,54.2
2017-08-15T11:43:40.523Z,54.1
2017-08-15T11:44:42.653Z,54.3
2017-08-15T11:45:44.454Z,54.1
2017-08-15T11:46:46.257Z,53.9
2017-08-15T11:47:48.058Z,54.3
2017-08-15T11:48:50.193Z,54.4
2017-08-15T11:49:51.996Z,54.6
2017-08-15T11:50:53.461Z,54.7
2017-08-15T11:51:55.272Z,55
2017-08-15T11:52:57.077Z,54.4
2017-08-15T11:53:58.519Z,54.8
2017-08-15T11:55:00.657Z,54.2
2017-08-15T11:56:02.127Z,54.3
2017-08-15T11:57:03.945Z,54.3
2017-08-15T11:58:05.402Z,54.2
2017-08-15T11:59:06.873Z,54
2017-08-15T12:00:08.317Z,54.6
2017-08-15T12:01:10.119Z,54.7
2017-08-15T12:02:11.921Z,54.8
2017-08-15T12:03:13.387Z,54.8
2017-08-15T12:04:15.565Z,54.7
2017-08-15T12:05:17.036Z,54.5
2017-08-15T12:06:18.836Z,54.6
2017-08-15T12:07:20.966Z,54.8
2017-08-15T12:08:22.418Z,54.5
2017-08-15T12:09:24.218Z,54.4
2017-08-15T12:10:26.040Z,54.8
2017-08-15T12:11:27.839Z,54.3
2017-08-15T12:12:29.618Z,54.9
2017-08-15T12:13:31.063Z,54.4
2017-08-15T12:14:32.862Z,54.3
2017-08-15T12:15:34.661Z,54.2
2017-08-15T12:16:36.793Z,54.8
2017-08-15T12:17:38.241Z,54.5
2017-08-15T12:18:40.040Z,54.4
2017-08-15T12:19:41.838Z,54.2
2017-08-15T12:20:43.307Z,54
2017-08-15T12:21:45.114Z,54.2
2017-08-15T12:22:46.889Z,54.4
2017-08-15T12:23:49.020Z,54.2
2017-08-15T12:24:50.817Z,54.3
2017-08-15T12:25:52.616Z,54.1
2017-08-15T12:26:54.059Z,53.9
2017-08-15T12:27:55.862Z,54
2017-08-15T12:28:57.658Z,54.5
2017-08-15T12:29:59.457Z,54.3
2017-08-15T12:31:01.587Z,54.3
2017-08-15T12:32:03.721Z,54.2
2017-08-15T12:33:05.521Z,54.2
2017-08-15T12:34:07.651Z,54.4
2017-08-15T12:35:09.122Z,54.1
2017-08-15T12:36:10.592Z,54.1
2017-08-15T12:37:12.389Z,54.2
2017-08-15T12:38:14.521Z,54.3
2017-08-15T12:39:16.654Z,54.3
2017-08-15T12:40:18.454Z,54.2
2017-08-15T12:41:20.601Z,53.5
2017-08-15T12:42:22.066Z,53.6
2017-08-15T12:43:23.537Z,54.1
2017-08-15T12:44:25.675Z,53.5
2017-08-15T12:45:27.477Z,53.6
2017-08-15T12:46:29.631Z,54.2
2017-08-15T12:47:31.085Z,54.2
2017-08-15T12:48:32.892Z,54.4
2017-08-15T12:49:35.026Z,53.7
2017-08-15T12:50:37.156Z,54.2
2017-08-15T12:51:39.286Z,53.6
2017-08-15T12:52:41.093Z,53.8
2017-08-15T12:53:43.222Z,53.8
2017-08-15T12:54:44.669Z,54.3
2017-08-15T12:55:46.519Z,53.8
2017-08-15T12:56:47.991Z,53.3
2017-08-15T12:57:49.784Z,53.6
2017-08-15T12:58:51.230Z,54
2017-08-15T12:59:53.007Z,53.9
2017-08-15T13:00:54.859Z,54.2
2017-08-15T13:01:56.988Z,53.5
2017-08-15T13:02:58.792Z,54.2
2017-08-15T13:04:00.925Z,54.3
2017-08-15T13:05:02.708Z,53.7
2017-08-15T13:06:04.556Z,53.2
2017-08-15T13:07:06.363Z,53.5
2017-08-15T13:08:08.158Z,53.9
2017-08-15T13:09:09.602Z,53.8
2017-08-15T13:10:11.737Z,53.7
2017-08-15T13:11:13.558Z,53.9
2017-08-15T13:12:15.682Z,53.6
2017-08-15T13:13:17.817Z,53.6
2017-08-15T13:14:19.948Z,53.9
2017-08-15T13:15:21.745Z,54
2017-08-15T13:16:23.199Z,54.2
2017-08-15T13:17:25.329Z,54.3
2017-08-15T13:18:27.460Z,54.5
2017-08-15T13:19:29.254Z,54.3
2017-08-15T13:20:31.056Z,54.2
2017-08-15T13:21:32.504Z,54.2
2017-08-15T13:22:34.293Z,54.2
2017-08-15T13:23:36.424Z,53.9
2017-08-15T13:24:38.228Z,54.5
2017-08-15T13:25:40.355Z,54.5
2017-08-15T13:26:41.820Z,54.2
2017-08-15T13:27:43.267Z,54.1
2017-08-15T13:28:44.710Z,54
2017-08-15T13:29:46.516Z,54.5
2017-08-15T13:30:47.958Z,54.2
2017-08-15T13:31:50.087Z,54.2
2017-08-15T13:32:52.215Z,54
2017-08-15T13:33:53.660Z,54.6
2017-08-15T13:34:55.103Z,54
2017-08-15T13:35:56.552Z,54
2017-08-15T13:36:58.005Z,54.1
2017-08-15T13:38:00.127Z,54.3
2017-08-15T13:39:02.255Z,54.2
2017-08-15T13:40:04.061Z,54.3
2017-08-15T13:41:06.194Z,54
2017-08-15T13:42:07.992Z,54.3
2017-08-15T13:43:09.786Z,54.3
2017-08-15T13:44:11.918Z,54.2
2017-08-15T13:45:13.695Z,54.1
2017-08-15T13:46:15.824Z,54.4
2017-08-15T13:47:17.955Z,54.2